Time;durP1;ratioP1;P1;durP2;ratioP2;P2;SDS_P1;SDS_P2;PMS_P1;PMS_P2;Temp;Humidity;BMP_temperature;BMP_pressure;BME280_temperature;BME280_humidity;BME280_pressure;Samples;Min_cycle;Max_cycle;Signal;HPM_P1;HPM_P2
2021/06/13 00:01:51;;;;;;;15.08;9.43;;;;;;;12.21;90.33;93936.22;1719399;83;20996;-56
2021/06/13 00:04:17;;;;;;;12.95;8.95;;;;;;;12.21;90.32;93928.72;1713358;83;21135;-56
2021/06/13 00:06:45;;;;;;;18.30;11.15;;;;;;;12.22;90.59;93927.48;1707083;83;21073;-57
2021/06/13 00:09:13;;;;;;;22.62;9.80;;;;;;;12.25;90.65;93930.66;1710592;83;20933;-56
2021/06/13 00:11:39;;;;;;;17.75;10.85;;;;;;;12.25;90.59;93923.02;1709299;83;21442;-57
2021/06/13 00:14:06;;;;;;;15.25;9.95;;;;;;;12.28;90.67;93924.81;1710781;83;20953;-57
2021/06/13 00:16:33;;;;;;;12.78;9.20;;;;;;;12.31;90.45;93914.20;1707598;83;21158;-57
2021/06/13 00:18:59;;;;;;;17.40;9.63;;;;;;;12.35;90.73;93912.78;1712217;83;21515;-57
2021/06/13 00:21:26;;;;;;;13.75;9.60;;;;;;;12.39;90.34;93914.71;1714261;83;21045;-56
2021/06/13 00:23:53;;;;;;;17.82;9.48;;;;;;;12.36;90.03;93910.77;1705324;83;20986;-57
2021/06/13 00:26:19;;;;;;;13.58;8.88;;;;;;;12.27;90.00;93910.25;1714818;83;21056;-57
2021/06/13 00:28:46;;;;;;;12.60;8.83;;;;;;;12.23;90.10;93900.05;1712293;83;21123;-56
2021/06/13 00:31:13;;;;;;;17.25;10.13;;;;;;;12.22;90.12;93908.17;1711596;83;21005;-57
2021/06/13 00:33:39;;;;;;;15.85;8.88;;;;;;;12.20;90.29;93901.00;1709098;83;20989;-58
2021/06/13 00:36:07;;;;;;;13.45;7.80;;;;;;;12.20;90.50;93898.85;1710314;82;21057;-57
2021/06/13 00:38:34;;;;;;;14.95;9.03;;;;;;;12.20;90.43;93905.14;1710998;83;20945;-57
2021/06/13 00:41:01;;;;;;;11.08;8.80;;;;;;;12.14;90.45;93891.89;1710681;83;21135;-56
2021/06/13 00:43:28;;;;;;;14.20;8.05;;;;;;;12.14;90.73;93889.14;1711520;82;20990;-57
2021/06/13 00:45:55;;;;;;;8.80;7.28;;;;;;;12.18;90.85;93878.66;1708056;83;21436;-58
2021/06/13 00:48:21;;;;;;;11.48;8.10;;;;;;;12.25;91.03;93885.16;1709239;83;22153;-57
2021/06/13 00:50:51;;;;;;;8.73;7.55;;;;;;;12.33;91.13;93878.02;1709444;83;21576;-58
2021/06/13 00:53:18;;;;;;;15.28;8.75;;;;;;;12.40;90.94;93876.84;1710416;83;21080;-57
2021/06/13 00:55:47;;;;;;;11.60;7.60;;;;;;;12.45;90.90;93870.03;1685682;84;20994;-57
2021/06/13 00:58:14;;;;;;;12.63;8.03;;;;;;;12.50;90.60;93869.98;1686408;83;20957;-57
2021/06/13 01:00:44;;;;;;;9.53;7.22;;;;;;;12.53;90.62;93860.88;1708950;82;20986;-57
2021/06/13 01:03:11;;;;;;;9.83;7.62;;;;;;;12.58;90.25;93848.41;1707278;83;20990;-58
2021/06/13 01:05:38;;;;;;;11.83;7.85;;;;;;;12.59;90.29;93849.92;1715181;83;21770;-57
2021/06/13 01:08:47;;;;;;;10.48;6.40;;;;;;;12.64;90.26;93844.48;1688634;83;21036;-57
2021/06/13 01:11:42;;;;;;;10.60;6.85;;;;;;;12.66;89.89;93841.23;1685362;83;21081;-56
2021/06/13 01:14:48;;;;;;;7.83;7.03;;;;;;;12.70;90.03;93821.11;1713623;83;21549;-56
2021/06/13 01:17:21;;;;;;;11.63;8.08;;;;;;;12.78;90.27;93811.16;1711740;83;21049;-56
2021/06/13 01:20:15;;;;;;;10.50;7.65;;;;;;;12.85;89.83;93809.35;1708261;83;21434;-55
2021/06/13 01:23:27;;;;;;;12.47;7.40;;;;;;;12.91;89.67;93801.91;1713596;83;21025;-57
2021/06/13 01:26:18;;;;;;;10.70;8.47;;;;;;;12.96;88.99;93801.24;1709446;82;21046;-57
2021/06/13 01:29:03;;;;;;;11.18;8.53;;;;;;;12.87;89.09;93795.22;1713182;82;22309;-57
2021/06/13 01:31:35;;;;;;;21.77;9.60;;;;;;;12.87;89.06;93807.63;1706146;83;21512;-55
2021/06/13 01:34:07;;;;;;;11.43;10.08;;;;;;;12.83;88.69;93789.15;1685975;83;21718;-57
2021/06/13 01:36:36;;;;;;;8.48;7.58;;;;;;;12.81;89.07;93792.25;1694523;83;21005;-56
2021/06/13 01:39:09;;;;;;;9.00;7.22;;;;;;;12.81;89.05;93790.87;1709450;83;21469;-56
2021/06/13 01:41:38;;;;;;;9.25;8.15;;;;;;;12.73;88.94;93789.78;1692403;83;21092;-56
2021/06/13 01:44:06;;;;;;;12.58;8.98;;;;;;;12.64;89.34;93796.80;1707535;83;21073;-56
2021/06/13 01:46:37;;;;;;;9.88;8.15;;;;;;;12.60;89.64;93790.13;1709386;83;21158;-56
2021/06/13 01:49:05;;;;;;;13.30;7.92;;;;;;;12.59;89.62;93790.00;1685012;83;21006;-56
2021/06/13 01:51:32;;;;;;;11.78;8.58;;;;;;;12.58;90.05;93791.84;1696277;83;21073;-56
2021/06/13 01:54:00;;;;;;;10.98;7.35;;;;;;;12.66;90.20;93798.45;1709504;83;21032;-55
2021/06/13 01:56:28;;;;;;;10.90;8.70;;;;;;;12.70;90.06;93791.50;1710079;82;20986;-56
2021/06/13 01:58:56;;;;;;;11.40;8.88;;;;;;;12.79;90.18;93801.03;1708319;83;21187;-57
2021/06/13 02:01:26;;;;;;;14.98;7.30;;;;;;;12.86;90.08;93798.47;1712238;83;21414;-55
2021/06/13 02:03:56;;;;;;;11.90;7.40;;;;;;;12.90;89.89;93803.16;1709351;83;20958;-56
2021/06/13 02:06:32;;;;;;;8.23;7.42;;;;;;;12.94;89.50;93794.06;1708384;83;20998;-55
2021/06/13 02:09:01;;;;;;;13.05;8.25;;;;;;;12.91;89.36;93804.04;1684445;82;21524;-56
2021/06/13 02:11:28;;;;;;;12.85;7.95;;;;;;;12.91;89.28;93794.38;1712991;83;21945;-57
2021/06/13 02:13:56;;;;;;;11.78;6.90;;;;;;;12.94;89.50;93795.45;1710612;82;20954;-57
2021/06/13 02:16:25;;;;;;;10.88;6.97;;;;;;;12.95;89.39;93790.06;1708565;83;21421;-57
2021/06/13 02:18:55;;;;;;;9.48;7.08;;;;;;;12.93;89.47;93778.75;1711374;83;21089;-56
2021/06/13 02:21:22;;;;;;;10.20;7.50;;;;;;;12.90;89.37;93783.20;1684895;83;21057;-56
2021/06/13 02:23:49;;;;;;;11.18;7.85;;;;;;;12.89;89.66;93787.20;1705407;83;21135;-57
2021/06/13 02:26:16;;;;;;;12.13;7.97;;;;;;;12.90;89.69;93782.45;1685599;82;21195;-56
2021/06/13 02:28:51;;;;;;;10.30;7.10;;;;;;;12.91;89.79;93783.97;1664928;83;20966;-57
2021/06/13 02:31:20;;;;;;;13.00;7.80;;;;;;;12.92;90.10;93772.45;1710266;83;21072;-56
2021/06/13 02:33:47;;;;;;;69.03;60.92;;;;;;;12.98;89.92;93800.13;1711561;83;21509;-57
2021/06/13 02:36:14;;;;;;;22.58;20.30;;;;;;;12.98;89.87;93824.98;1687465;84;21150;-56
2021/06/13 02:38:48;;;;;;;9.25;8.35;;;;;;;12.96;90.08;93829.63;1706341;83;21104;-55
2021/06/13 02:41:15;;;;;;;12.98;7.58;;;;;;;12.91;90.46;93822.62;1707042;83;20958;-56
2021/06/13 02:43:43;;;;;;;9.28;7.72;;;;;;;12.84;90.68;93824.39;1714600;83;21049;-56
2021/06/13 02:46:10;;;;;;;13.90;7.90;;;;;;;12.77;91.04;93817.92;1687012;83;21036;-56
2021/06/13 02:48:37;;;;;;;11.10;7.80;;;;;;;12.76;91.41;93806.75;1707263;83;21218;-56
2021/06/13 02:51:04;;;;;;;11.38;7.80;;;;;;;12.79;91.65;93809.91;1708763;83;20957;-56
2021/06/13 02:53:43;;;;;;;8.75;6.97;;;;;;;12.83;91.78;93804.94;1711799;83;21057;-56
2021/06/13 02:56:36;;;;;;;8.85;6.65;;;;;;;12.90;91.94;93801.78;1707816;83;21001;-56
2021/06/13 02:59:32;;;;;;;11.28;6.70;;;;;;;12.90;91.71;93799.77;1708025;83;21489;-57
2021/06/13 03:02:00;;;;;;;9.10;6.92;;;;;;;12.91;91.78;93796.39;1706336;83;21196;-56
2021/06/13 03:04:28;;;;;;;9.10;6.90;;;;;;;12.90;91.95;93803.16;1686934;83;21023;-56
2021/06/13 03:06:57;;;;;;;13.35;7.65;;;;;;;12.90;91.92;93807.30;1688684;83;21452;-56
2021/06/13 03:09:27;;;;;;;8.73;7.53;;;;;;;12.87;91.89;93805.52;1688529;84;21005;-56
2021/06/13 03:11:55;;;;;;;12.63;9.70;;;;;;;12.88;92.28;93809.79;1710108;83;21001;-56
2021/06/13 03:14:24;;;;;;;7.90;7.10;;;;;;;12.92;92.34;93822.14;1712800;83;21153;-55
2021/06/13 03:16:51;;;;;;;9.13;7.97;;;;;;;12.93;92.12;93820.91;1688768;83;21021;-56
2021/06/13 03:19:18;;;;;;;8.93;6.70;;;;;;;12.92;92.19;93822.75;1710780;83;20998;-56
2021/06/13 03:21:47;;;;;;;4.85;4.42;;;;;;;12.95;92.39;93821.81;1710758;83;21104;-56
2021/06/13 03:24:14;;;;;;;7.58;5.95;;;;;;;13.00;93.03;93826.63;1706815;83;21006;-56
2021/06/13 03:26:42;;;;;;;10.05;5.65;;;;;;;13.08;92.55;93842.30;1687653;83;21145;-56
2021/06/13 03:29:10;;;;;;;6.97;6.28;;;;;;;13.09;92.26;93850.72;1706475;83;21116;-56
2021/06/13 03:31:37;;;;;;;6.22;5.62;;;;;;;13.07;92.42;93857.34;1709279;83;21056;-56
2021/06/13 03:34:03;;;;;;;7.45;6.35;;;;;;;13.07;92.36;93860.74;1710108;83;20994;-56
2021/06/13 03:36:32;;;;;;;5.90;5.30;;;;;;;13.01;92.47;93864.81;1682697;83;21013;-55
2021/06/13 03:38:58;;;;;;;6.55;5.28;;;;;;;13.00;92.71;93868.81;1707635;83;21150;-56
2021/06/13 03:41:25;;;;;;;6.40;4.75;;;;;;;12.98;92.81;93877.44;1710714;84;20954;-57
2021/06/13 03:43:54;;;;;;;7.67;5.30;;;;;;;12.94;93.04;93870.73;1710336;83;21548;-56
2021/06/13 03:46:21;;;;;;;8.75;6.00;;;;;;;12.95;93.21;93879.78;1709645;83;21501;-55
2021/06/13 03:48:51;;;;;;;5.53;5.03;;;;;;;12.99;93.63;93878.95;1707650;83;21081;-56
2021/06/13 03:51:19;;;;;;;7.60;6.75;;;;;;;13.06;93.76;93875.80;1712418;83;21202;-56
2021/06/13 03:53:54;;;;;;;6.30;5.70;;;;;;;13.16;93.60;93873.02;1711127;82;21187;-56
2021/06/13 03:56:19;;;;;;;5.97;5.33;;;;;;;13.23;93.25;93883.66;1708390;83;20957;-56
2021/06/13 03:58:47;;;;;;;8.28;5.95;;;;;;;13.31;93.11;93879.22;1686753;84;21045;-56
2021/06/13 04:01:16;;;;;;;4.95;4.53;;;;;;;13.35;92.86;93879.77;1691888;83;21072;-56
2021/06/13 04:03:48;;;;;;;5.65;4.53;;;;;;;13.40;92.79;93879.83;1721463;83;21211;-56
2021/06/13 04:06:15;;;;;;;5.47;4.87;;;;;;;13.48;92.75;93884.31;1710517;83;21589;-56
2021/06/13 04:08:42;;;;;;;5.75;5.10;;;;;;;13.51;92.59;93886.09;1690920;83;21001;-56
2021/06/13 04:11:09;;;;;;;9.10;5.28;;;;;;;13.54;92.38;93891.42;1712610;82;21029;-57
2021/06/13 04:13:36;;;;;;;5.10;4.70;;;;;;;13.53;92.50;93891.89;1685357;83;21421;-57
2021/06/13 04:16:06;;;;;;;4.90;4.20;;;;;;;13.56;92.61;93894.45;1711256;83;23085;-56
2021/06/13 04:18:34;;;;;;;4.83;3.65;;;;;;;13.63;92.57;93904.33;1685466;83;21010;-56
2021/06/13 04:21:03;;;;;;;3.70;3.02;;;;;;;13.65;92.25;93917.77;1706451;83;21489;-56
2021/06/13 04:23:29;;;;;;;4.37;3.00;;;;;;;13.66;92.12;93924.82;1667712;83;21477;-56
2021/06/13 04:25:56;;;;;;;3.15;2.90;;;;;;;13.66;91.87;93929.60;1719863;83;20961;-56
2021/06/13 04:28:24;;;;;;;5.75;2.60;;;;;;;13.67;91.78;93928.36;1707570;83;21754;-57
2021/06/13 04:31:11;;;;;;;3.02;2.40;;;;;;;13.68;91.58;93927.11;1711035;83;21142;-56
2021/06/13 04:33:37;;;;;;;3.15;2.50;;;;;;;13.69;91.60;93939.68;1709371;83;20990;-56
2021/06/13 04:36:06;;;;;;;7.58;2.40;;;;;;;13.70;91.55;93948.88;1709463;83;20974;-56
2021/06/13 04:38:33;;;;;;;3.62;2.60;;;;;;;13.72;91.58;93945.61;1711003;82;21058;-56
2021/06/13 04:41:01;;;;;;;2.90;2.27;;;;;;;13.69;91.28;93944.60;1706509;83;21144;-56
2021/06/13 04:43:28;;;;;;;4.65;2.90;;;;;;;13.67;91.58;93944.30;1711948;83;20953;-57
2021/06/13 04:45:55;;;;;;;3.47;3.17;;;;;;;13.69;91.38;93952.13;1709077;82;21167;-57
2021/06/13 04:48:22;;;;;;;5.37;3.65;;;;;;;13.65;91.29;93953.70;1711919;83;21463;-57
2021/06/13 04:50:48;;;;;;;4.35;3.50;;;;;;;13.67;91.20;93961.52;1712876;83;20984;-57
2021/06/13 04:53:54;;;;;;;6.17;4.75;;;;;;;13.63;91.17;93954.08;1713332;83;21131;-56
2021/06/13 04:56:52;;;;;;;8.05;6.05;;;;;;;13.59;91.49;93975.64;1710220;83;21006;-56
2021/06/13 04:59:19;;;;;;;6.85;5.65;;;;;;;13.54;91.32;93980.45;1708392;83;21100;-58
2021/06/13 05:01:46;;;;;;;7.25;6.28;;;;;;;13.49;91.74;93983.28;1706805;83;20966;-56
2021/06/13 05:04:14;;;;;;;8.00;6.28;;;;;;;13.49;92.30;93984.66;1709166;83;21014;-56
2021/06/13 05:06:44;;;;;;;7.97;5.20;;;;;;;13.53;92.35;93995.52;1708864;82;21162;-56
2021/06/13 05:09:12;;;;;;;9.08;5.35;;;;;;;13.53;92.22;93985.84;1706028;83;21525;-55
2021/06/13 05:11:39;;;;;;;9.00;4.75;;;;;;;13.54;92.29;93981.23;1706795;83;21576;-57
2021/06/13 05:14:06;;;;;;;5.10;3.87;;;;;;;13.60;92.42;93970.25;1707638;83;20977;-57
2021/06/13 05:16:33;;;;;;;5.20;3.45;;;;;;;13.65;92.40;93952.33;1710269;82;21002;-56
2021/06/13 05:19:01;;;;;;;6.55;4.12;;;;;;;13.63;91.92;93958.22;1684073;84;21112;-57
2021/06/13 05:21:28;;;;;;;4.33;3.92;;;;;;;13.58;91.76;93971.33;1700595;83;21059;-57
2021/06/13 05:23:55;;;;;;;7.40;4.87;;;;;;;13.55;92.13;93988.88;1707565;83;20954;-57
2021/06/13 05:26:22;;;;;;;6.75;4.55;;;;;;;13.56;92.14;93985.65;1705559;83;20999;-57
2021/06/13 05:28:49;;;;;;;9.15;5.42;;;;;;;13.59;91.99;93986.70;1709178;83;21442;-56
2021/06/13 05:31:17;;;;;;;5.53;4.62;;;;;;;13.64;92.38;93990.14;1706681;83;21152;-57
2021/06/13 05:33:43;;;;;;;5.92;4.87;;;;;;;13.70;91.95;93992.34;1707313;83;21049;-56
2021/06/13 05:36:10;;;;;;;6.50;4.75;;;;;;;13.67;91.72;93985.02;1707076;83;21030;-56
2021/06/13 05:38:40;;;;;;;6.17;5.55;;;;;;;13.65;91.83;93979.22;1706545;83;21013;-57
2021/06/13 05:41:05;;;;;;;8.05;4.60;;;;;;;13.69;92.15;93981.92;1704485;83;20960;-57
2021/06/13 05:43:33;;;;;;;6.83;4.25;;;;;;;13.77;92.32;93984.38;1701957;84;21149;-57
2021/06/13 05:46:02;;;;;;;8.88;5.70;;;;;;;13.85;92.06;93985.47;1699286;83;20993;-56
2021/06/13 05:48:30;;;;;;;7.25;3.72;;;;;;;13.90;91.45;94002.77;1710742;83;21045;-56
2021/06/13 05:50:57;;;;;;;3.52;3.22;;;;;;;13.93;90.22;94003.78;1706454;83;21002;-56
2021/06/13 05:53:24;;;;;;;3.45;3.00;;;;;;;13.92;89.34;94004.42;1706116;83;21443;-56
2021/06/13 05:55:51;;;;;;;4.83;3.55;;;;;;;13.93;88.69;94017.61;1707729;83;21123;-56
2021/06/13 05:58:18;;;;;;;4.25;3.85;;;;;;;13.89;88.15;94014.30;1710435;83;20982;-56
2021/06/13 06:00:45;;;;;;;5.75;4.35;;;;;;;13.82;88.42;94027.91;1710462;83;21488;-57
2021/06/13 06:03:12;;;;;;;8.23;4.42;;;;;;;13.79;88.97;94040.59;1707344;83;20994;-56
2021/06/13 06:05:40;;;;;;;4.90;4.00;;;;;;;13.81;89.09;94049.16;1711946;83;21045;-57
2021/06/13 06:08:06;;;;;;;4.85;4.45;;;;;;;13.79;89.18;94048.24;1708253;83;21126;-56
2021/06/13 06:10:35;;;;;;;5.60;4.92;;;;;;;13.79;89.45;94039.20;1707739;83;20938;-57
2021/06/13 06:13:04;;;;;;;6.85;4.72;;;;;;;13.79;89.52;94041.97;1707838;83;21041;-56
2021/06/13 06:15:35;;;;;;;5.58;4.60;;;;;;;13.75;89.13;94043.55;1710736;82;21029;-57
2021/06/13 06:18:01;;;;;;;7.28;4.67;;;;;;;13.69;89.05;94053.02;1715689;83;21057;-57
2021/06/13 06:20:30;;;;;;;5.10;4.60;;;;;;;13.61;89.24;94072.64;1712297;83;39120;-57
2021/06/13 06:22:58;;;;;;;4.50;4.10;;;;;;;13.61;89.48;94082.31;1708865;83;20962;-60
2021/06/13 06:25:26;;;;;;;4.67;4.00;;;;;;;13.63;89.70;94081.21;1711054;83;21139;-57
2021/06/13 06:27:53;;;;;;;2.50;2.30;;;;;;;13.67;89.68;94074.85;1709863;83;21506;-57
2021/06/13 06:30:22;;;;;;;6.65;2.50;;;;;;;13.65;82.25;94065.64;1717173;83;21049;-57
2021/06/13 06:32:49;;;;;;;4.28;3.45;;;;;;;13.67;81.31;94076.23;1709752;83;21166;-57
2021/06/13 06:35:16;;;;;;;3.52;2.45;;;;;;;13.65;81.03;94068.41;1708251;83;20982;-57
2021/06/13 06:37:43;;;;;;;2.37;2.17;;;;;;;13.58;76.43;94074.97;1710443;83;21429;-59
2021/06/13 06:40:12;;;;;;;3.45;2.50;;;;;;;13.60;77.12;94078.03;1709385;83;21034;-58
2021/06/13 06:42:40;;;;;;;5.05;3.15;;;;;;;13.61;76.88;94089.23;1719979;83;21615;-56
2021/06/13 06:45:09;;;;;;;2.80;2.60;;;;;;;13.60;77.10;94096.00;1709480;83;21080;-57
2021/06/13 06:47:35;;;;;;;2.62;2.40;;;;;;;13.56;77.29;94098.18;1719452;83;20937;-57
2021/06/13 06:50:03;;;;;;;2.95;2.65;;;;;;;13.49;76.70;94101.36;1712612;83;21551;-57
2021/06/13 06:52:30;;;;;;;3.22;2.80;;;;;;;13.44;76.27;94124.16;1715357;83;21068;-57
2021/06/13 06:54:58;;;;;;;3.00;2.52;;;;;;;13.37;74.80;94112.09;1706075;83;20958;-57
2021/06/13 06:57:26;;;;;;;3.70;3.40;;;;;;;13.33;75.39;94119.83;1707802;83;21804;-56
2021/06/13 06:59:54;;;;;;;5.80;5.10;;;;;;;13.29;75.80;94127.56;1685101;84;20986;-57
2021/06/13 07:02:21;;;;;;;4.60;3.87;;;;;;;13.26;75.33;94123.00;1707047;82;20997;-57
2021/06/13 07:04:47;;;;;;;5.62;4.15;;;;;;;13.29;75.87;94119.27;1710464;83;21481;-57
2021/06/13 07:07:14;;;;;;;6.05;3.10;;;;;;;13.29;75.60;94124.16;1707458;83;21029;-58
2021/06/13 07:09:41;;;;;;;5.47;4.30;;;;;;;13.28;75.13;94112.23;1707208;83;21880;-58
2021/06/13 07:12:10;;;;;;;6.87;4.97;;;;;;;13.29;75.18;94127.56;1706584;84;21065;-57
2021/06/13 07:14:37;;;;;;;8.25;7.33;;;;;;;13.30;75.17;94124.30;1709838;82;20997;-57
2021/06/13 07:17:05;;;;;;;9.40;7.00;;;;;;;13.41;75.83;94117.58;1707060;83;20973;-61
2021/06/13 07:19:32;;;;;;;8.60;6.10;;;;;;;13.54;76.21;94120.79;1710608;83;21013;-58
2021/06/13 07:21:58;;;;;;;5.08;4.58;;;;;;;13.69;75.61;94126.27;1706944;82;21158;-58
2021/06/13 07:24:26;;;;;;;11.60;3.33;;;;;;;13.83;73.42;94126.84;1708508;82;20954;-56
2021/06/13 07:26:53;;;;;;;4.58;3.00;;;;;;;13.90;70.92;94125.03;1710016;83;21021;-57
2021/06/13 07:29:20;;;;;;;3.62;2.85;;;;;;;13.97;72.48;94138.47;1708355;83;21041;-60
2021/06/13 07:31:49;;;;;;;5.55;3.20;;;;;;;14.06;73.14;94123.88;1710511;83;20970;-59
2021/06/13 07:34:16;;;;;;;4.67;2.85;;;;;;;14.15;72.95;94123.73;1709342;83;21139;-57
2021/06/13 07:36:44;;;;;;;2.60;2.40;;;;;;;14.34;72.87;94121.48;1706915;83;21021;-57
2021/06/13 07:39:12;;;;;;;3.02;2.72;;;;;;;14.48;71.79;94120.74;1703412;83;21053;-57
2021/06/13 07:41:39;;;;;;;4.83;3.40;;;;;;;14.67;70.32;94119.19;1710297;83;21009;-57
2021/06/13 07:44:06;;;;;;;3.52;2.40;;;;;;;14.86;70.15;94121.78;1710854;83;20965;-58
2021/06/13 07:46:35;;;;;;;5.15;2.65;;;;;;;15.04;70.04;94124.83;1708749;83;21170;-57
2021/06/13 07:49:03;;;;;;;6.62;3.40;;;;;;;15.14;68.82;94129.70;1711217;83;21600;-57
2021/06/13 07:51:30;;;;;;;3.83;3.45;;;;;;;15.23;68.67;94133.70;1706625;83;21201;-57
2021/06/13 07:53:58;;;;;;;5.65;2.60;;;;;;;15.42;69.65;94132.13;1709484;83;21429;-57
2021/06/13 07:56:26;;;;;;;4.62;2.65;;;;;;;15.60;66.28;94141.45;1710664;83;20973;-57
2021/06/13 07:58:52;;;;;;;3.37;2.40;;;;;;;15.78;64.11;94136.91;1710860;83;21125;-57
2021/06/13 08:01:21;;;;;;;4.58;2.30;;;;;;;15.96;62.90;94140.67;1710832;83;20969;-58
2021/06/13 08:03:49;;;;;;;29.72;18.35;;;;;;;15.99;62.72;94149.39;1706579;83;21002;-59
2021/06/13 08:06:15;;;;;;;5.03;3.58;;;;;;;16.00;62.11;94151.52;1712056;83;20969;-56
2021/06/13 08:08:42;;;;;;;2.90;2.55;;;;;;;16.00;60.95;94150.91;1708075;82;21536;-57
2021/06/13 08:11:09;;;;;;;4.53;2.70;;;;;;;15.98;60.59;94159.58;1694909;84;21476;-57
2021/06/13 08:13:38;;;;;;;4.22;3.17;;;;;;;15.97;59.81;94166.39;1701184;83;21045;-56
2021/06/13 08:16:06;;;;;;;5.55;2.75;;;;;;;16.00;60.49;94166.16;1709693;82;21105;-57
2021/06/13 08:18:33;;;;;;;5.70;2.20;;;;;;;16.05;61.90;94162.66;1713176;83;21037;-56
2021/06/13 08:21:00;;;;;;;6.20;2.47;;;;;;;16.09;60.37;94163.81;1709012;83;21102;-56
2021/06/13 08:23:27;;;;;;;4.17;2.27;;;;;;;16.04;59.50;94173.62;1707122;83;21164;-58
2021/06/13 08:25:54;;;;;;;3.00;2.65;;;;;;;16.03;58.86;94172.11;1680854;83;21037;-56
2021/06/13 08:28:22;;;;;;;3.33;2.30;;;;;;;16.00;58.63;94169.55;1708520;83;21013;-58
2021/06/13 08:30:50;;;;;;;4.92;2.67;;;;;;;15.96;58.77;94169.80;1715005;83;21579;-57
2021/06/13 08:33:17;;;;;;;2.72;2.30;;;;;;;15.95;59.21;94169.64;1714722;82;21021;-57
2021/06/13 08:35:44;;;;;;;2.62;2.02;;;;;;;15.88;58.11;94161.80;1711049;83;21021;-58
2021/06/13 08:38:11;;;;;;;4.65;2.40;;;;;;;15.78;57.74;94164.64;1713870;82;21057;-58
2021/06/13 08:40:38;;;;;;;3.47;2.70;;;;;;;15.68;58.92;94170.23;1692018;83;20989;-58
2021/06/13 08:43:05;;;;;;;3.27;2.80;;;;;;;15.64;60.46;94175.25;1705536;83;21018;-56
2021/06/13 08:45:34;;;;;;;2.85;2.40;;;;;;;15.63;60.79;94173.73;1686508;83;21100;-57
2021/06/13 08:48:02;;;;;;;8.08;2.90;;;;;;;15.68;62.40;94175.78;1710715;83;21804;-57
2021/06/13 08:50:30;;;;;;;2.52;2.33;;;;;;;15.70;62.37;94189.91;1710983;83;21520;-59
2021/06/13 08:52:57;;;;;;;3.70;2.52;;;;;;;15.73;61.89;94179.21;1707293;83;21441;-57
2021/06/13 08:55:24;;;;;;;4.72;2.80;;;;;;;15.75;61.14;94185.02;1710891;83;21497;-57
2021/06/13 08:57:52;;;;;;;5.10;2.42;;;;;;;15.71;59.93;94183.11;1707310;82;21006;-57
2021/06/13 09:00:24;;;;;;;6.03;3.00;;;;;;;15.64;59.72;94189.12;1710368;83;21762;-57
2021/06/13 09:02:51;;;;;;;3.15;2.60;;;;;;;15.58;59.45;94179.23;1710718;83;21002;-57
2021/06/13 09:05:19;;;;;;;11.00;3.00;;;;;;;15.57;60.60;94190.94;1707130;83;21005;-58
2021/06/13 09:07:57;;;;;;;9.33;4.87;;;;;;;15.61;60.60;94188.72;1708246;83;21069;-59
2021/06/13 09:10:28;;;;;;;5.03;3.27;;;;;;;15.68;60.46;94188.27;1710888;82;21080;-56
2021/06/13 09:13:15;;;;;;;4.05;3.40;;;;;;;15.79;59.96;94186.97;1708787;83;21133;-59
2021/06/13 09:16:03;;;;;;;7.28;3.80;;;;;;;15.91;59.94;94185.77;1711595;83;21005;-58
2021/06/13 09:18:39;;;;;;;13.78;4.90;;;;;;;16.06;59.66;94188.41;1707272;83;21033;-57
2021/06/13 09:21:26;;;;;;;14.85;5.33;;;;;;;16.11;57.89;94186.28;1710061;83;21021;-58
2021/06/13 09:23:53;;;;;;;7.30;4.28;;;;;;;16.09;59.04;94195.09;1682131;84;21011;-57
2021/06/13 09:26:26;;;;;;;5.80;3.12;;;;;;;16.08;57.44;94194.95;1709364;83;21093;-58
2021/06/13 09:28:53;;;;;;;;;;;;;;;16.01;57.37;94200.20;1714643;83;21040;-59
2021/06/13 09:31:25;;;;;;;4.65;3.08;;;;;;;15.97;58.50;94211.55;1715989;83;20173;-58
2021/06/13 09:33:55;;;;;;;4.13;2.67;;;;;;;15.95;58.28;94212.65;1710140;82;21053;-57
2021/06/13 09:36:32;;;;;;;5.22;2.95;;;;;;;15.91;57.13;94210.73;1712230;83;20989;-57
2021/06/13 09:39:05;;;;;;;6.95;2.85;;;;;;;15.85;58.77;94221.66;1714220;83;21318;-57
2021/06/13 09:41:40;;;;;;;11.03;3.98;;;;;;;15.81;58.84;94237.16;1714934;82;21004;-57
2021/06/13 09:44:17;;;;;;;9.55;4.47;;;;;;;15.79;58.50;94242.44;1714211;83;20958;-57
2021/06/13 09:46:51;;;;;;;6.92;3.80;;;;;;;15.76;59.04;94248.95;1713686;83;21009;-57
2021/06/13 09:49:19;;;;;;;9.20;3.67;;;;;;;15.66;58.03;94253.16;1706409;82;21076;-57
2021/06/13 09:51:49;;;;;;;5.15;3.60;;;;;;;15.50;57.42;94262.09;1708104;83;21126;-57
2021/06/13 09:54:27;;;;;;;10.15;5.42;;;;;;;15.35;58.58;94267.63;1708034;83;21592;-58
2021/06/13 09:56:56;;;;;;;6.95;4.03;;;;;;;15.25;58.15;94260.06;1710541;83;20993;-57
2021/06/13 09:59:26;;;;;;;14.10;4.75;;;;;;;15.17;57.20;94271.42;1708168;83;21030;-58
2021/06/13 10:01:56;;;;;;;8.20;3.83;;;;;;;15.09;58.52;94271.73;1706754;83;20990;-57
2021/06/13 10:04:31;;;;;;;7.22;3.47;;;;;;;15.10;59.53;94258.01;1714291;82;21693;-57
2021/06/13 10:07:20;;;;;;;4.90;3.37;;;;;;;15.14;57.11;94257.17;1709373;83;20993;-58
2021/06/13 10:09:52;;;;;;;3.80;2.85;;;;;;;15.16;56.87;94258.82;1692117;83;21430;-56
2021/06/13 10:12:20;;;;;;;6.03;3.25;;;;;;;15.20;54.96;94257.97;1706200;83;21062;-57
2021/06/13 10:14:49;;;;;;;4.75;2.92;;;;;;;15.25;56.72;94262.06;1709166;82;21158;-58
2021/06/13 10:17:16;;;;;;;10.82;4.22;;;;;;;15.46;56.62;94258.01;1708372;83;21119;-57
2021/06/13 10:19:47;;;;;;;5.85;3.42;;;;;;;15.77;55.44;94260.81;1710158;83;20965;-57
2021/06/13 10:22:16;;;;;;;5.15;2.87;;;;;;;16.09;54.76;94245.04;1710250;83;20997;-58
2021/06/13 10:24:45;;;;;;;5.42;2.85;;;;;;;16.40;55.89;94247.80;1714750;83;21666;-59
2021/06/13 10:27:18;;;;;;;6.28;2.80;;;;;;;16.59;55.20;94251.69;1715449;83;21017;-58
2021/06/13 10:29:46;;;;;;;4.78;2.67;;;;;;;16.73;54.30;94252.88;1709463;83;26079;-56
2021/06/13 10:32:16;;;;;;;6.53;3.45;;;;;;;16.79;54.80;94250.14;1707727;83;20982;-57
2021/06/13 10:34:42;;;;;;;5.55;2.77;;;;;;;16.73;54.51;94267.42;1708842;83;21005;-57
2021/06/13 10:37:13;;;;;;;5.33;3.00;;;;;;;16.54;54.72;94285.11;1712179;83;21045;-57
2021/06/13 10:39:40;;;;;;;7.30;4.78;;;;;;;16.36;51.08;94288.92;1688520;83;21425;-57
2021/06/13 10:42:13;;;;;;;7.75;4.12;;;;;;;16.16;49.90;94286.84;1713300;83;21133;-57
2021/06/13 10:44:49;;;;;;;5.45;4.37;;;;;;;15.95;49.60;94288.20;1706885;83;21118;-57
2021/06/13 10:47:17;;;;;;;10.68;3.35;;;;;;;15.81;50.11;94287.09;1708769;83;21433;-57
2021/06/13 10:49:49;;;;;;;6.53;3.08;;;;;;;15.70;50.10;94280.05;1710749;83;21516;-56
2021/06/13 10:52:22;;;;;;;10.28;3.02;;;;;;;15.69;49.75;94296.55;1708366;82;20969;-58
2021/06/13 10:54:55;;;;;;;6.15;2.98;;;;;;;15.79;50.55;94284.05;1710684;83;21157;-57
2021/06/13 10:57:31;;;;;;;5.75;2.52;;;;;;;15.90;50.44;94291.70;1719775;82;20985;-57
2021/06/13 10:59:59;;;;;;;3.92;2.60;;;;;;;16.05;48.63;94290.30;1708338;83;21457;-57
2021/06/13 11:02:43;;;;;;;5.87;2.45;;;;;;;16.22;49.52;94290.41;1709067;83;20982;-56
2021/06/13 11:05:10;;;;;;;6.28;2.42;;;;;;;16.36;47.98;94280.59;1716224;83;21021;-58
2021/06/13 11:07:44;;;;;;;3.77;2.33;;;;;;;16.55;47.83;94278.94;1709977;83;21163;-57
2021/06/13 11:10:16;;;;;;;4.50;2.47;;;;;;;17.01;47.16;94282.17;1710070;83;26441;-58
2021/06/13 11:13:01;;;;;;;3.37;2.22;;;;;;;17.25;48.54;94279.75;1710462;82;21045;-59
2021/06/13 11:15:41;;;;;;;9.08;3.15;;;;;;;17.40;46.68;94278.30;1708541;83;21146;-58
2021/06/13 11:18:17;;;;;;;3.58;2.27;;;;;;;17.47;46.12;94282.61;1706904;83;20966;-57
2021/06/13 11:21:13;;;;;;;4.47;2.05;;;;;;;17.39;44.79;94279.56;1709517;83;21139;-57
2021/06/13 11:23:43;;;;;;;6.03;2.22;;;;;;;17.22;45.34;94287.68;1707087;83;20997;-57
2021/06/13 11:26:33;;;;;;;4.90;2.58;;;;;;;16.98;46.62;94294.30;1681623;83;21006;-57
2021/06/13 11:28:59;;;;;;;9.90;4.70;;;;;;;16.90;48.02;94291.87;1710306;83;20986;-57
2021/06/13 11:31:27;;;;;;;11.10;4.12;;;;;;;16.80;48.69;94292.72;1710456;83;21013;-57
2021/06/13 11:34:00;;;;;;;6.37;2.95;;;;;;;16.70;47.59;94287.22;1709367;83;21039;-58
2021/06/13 11:36:33;;;;;;;5.30;2.60;;;;;;;16.65;48.08;94285.18;1708187;83;21568;-57
2021/06/13 11:39:10;;;;;;;12.07;3.52;;;;;;;16.75;47.77;94289.25;1707429;83;21104;-56
2021/06/13 11:41:42;;;;;;;4.37;2.60;;;;;;;16.79;46.16;94284.25;1716861;82;21175;-57
2021/06/13 11:44:24;;;;;;;6.03;2.37;;;;;;;17.05;45.15;94278.52;1713163;83;21001;-56
2021/06/13 11:46:53;;;;;;;4.90;2.50;;;;;;;17.11;45.74;94280.06;1709945;83;21118;-58